createdAt,value
2023-02-14T00:00:06.211Z,70.66
2023-02-14T00:01:11.145Z,70.73
2023-02-14T00:02:31.066Z,70.43
2023-02-14T00:03:32.681Z,70.68
2023-02-14T00:04:38.205Z,70.94
2023-02-14T00:05:39.889Z,70.65
2023-02-14T00:06:42.795Z,70.65
2023-02-14T00:07:45.404Z,70.46
2023-02-14T00:08:46.939Z,70.80
2023-02-14T00:09:49.516Z,70.58
2023-02-14T00:10:52.606Z,70.48
2023-02-14T00:11:55.332Z,70.93
2023-02-14T00:12:57.376Z,70.53
2023-02-14T00:14:18.329Z,70.70
2023-02-14T00:15:24.829Z,70.62
2023-02-14T00:16:26.399Z,70.94
2023-02-14T00:17:27.977Z,70.82
2023-02-14T00:18:44.413Z,70.95
2023-02-14T00:19:47.420Z,70.64
2023-02-14T00:20:48.990Z,70.94
2023-02-14T00:21:52.043Z,70.72
2023-02-14T00:23:04.649Z,70.94
2023-02-14T00:24:09.421Z,70.94
2023-02-14T00:25:12.016Z,70.80
2023-02-14T00:26:15.517Z,70.91
2023-02-14T00:27:18.084Z,71.04
2023-02-14T00:28:19.646Z,70.94
2023-02-14T00:29:24.605Z,70.99
2023-02-14T00:30:26.365Z,71.31
2023-02-14T00:31:32.981Z,70.88
2023-02-14T00:32:35.783Z,71.04
2023-02-14T00:33:37.535Z,71.18
2023-02-14T00:34:42.161Z,71.04
2023-02-14T00:35:44.260Z,70.95
2023-02-14T00:36:52.413Z,71.02
2023-02-14T00:37:54.409Z,70.94
2023-02-14T00:38:56.958Z,71.15
2023-02-14T00:40:00.054Z,71.12
2023-02-14T00:41:02.077Z,71.02
2023-02-14T00:42:06.082Z,71.10
2023-02-14T00:43:07.620Z,71.12
2023-02-14T00:44:13.387Z,70.89
2023-02-14T00:45:18.793Z,71.00
2023-02-14T00:46:23.508Z,71.11
2023-02-14T00:47:26.769Z,71.07
2023-02-14T00:48:28.361Z,70.94
2023-02-14T00:49:30.854Z,70.87
2023-02-14T00:50:32.465Z,71.05
2023-02-14T00:51:34.939Z,71.07
2023-02-14T00:52:36.443Z,70.80
2023-02-14T00:53:39.994Z,71.10
2023-02-14T00:54:44.807Z,71.01
2023-02-14T00:55:46.518Z,70.99
2023-02-14T00:56:49.030Z,70.88
2023-02-14T00:57:51.870Z,71.00
2023-02-14T00:58:54.382Z,71.20
2023-02-14T00:59:55.914Z,71.31
2023-02-14T01:00:59.254Z,71.24
2023-02-14T01:02:01.067Z,71.17
2023-02-14T01:03:03.645Z,71.23
2023-02-14T01:04:05.626Z,71.17
2023-02-14T01:05:08.661Z,71.50
2023-02-14T01:06:10.529Z,71.06
2023-02-14T01:07:13.476Z,71.52
2023-02-14T01:08:15.788Z,71.06
2023-02-14T01:09:18.615Z,71.15
2023-02-14T01:10:20.291Z,71.22
2023-02-14T01:11:24.687Z,71.27
2023-02-14T01:12:26.274Z,71.09
2023-02-14T01:13:30.215Z,71.22
2023-02-14T01:14:32.706Z,71.45
2023-02-14T01:15:39.574Z,71.37
2023-02-14T01:16:42.142Z,71.22
2023-02-14T01:17:43.841Z,71.24
2023-02-14T01:18:56.972Z,71.57
2023-02-14T01:19:58.924Z,71.01
2023-02-14T01:21:11.245Z,71.39
2023-02-14T01:22:13.751Z,71.40
2023-02-14T01:23:15.309Z,71.52
2023-02-14T01:24:17.967Z,71.37
2023-02-14T01:25:19.735Z,71.40
2023-02-14T01:26:23.272Z,71.29
2023-02-14T01:27:24.839Z,71.53
2023-02-14T01:28:27.692Z,71.11
2023-02-14T01:29:30.566Z,71.36
2023-02-14T01:30:33.357Z,71.16
2023-02-14T01:31:35.789Z,71.76
2023-02-14T01:32:38.402Z,71.80
2023-02-14T01:33:41.492Z,71.55
2023-02-14T01:34:43.959Z,71.48
2023-02-14T01:35:45.480Z,71.58
2023-02-14T01:36:48.004Z,71.49
2023-02-14T01:37:51.452Z,71.41
2023-02-14T01:38:56.505Z,71.68
2023-02-14T01:39:58.024Z,71.61
2023-02-14T01:41:00.968Z,71.40
2023-02-14T01:42:03.644Z,71.54
2023-02-14T01:43:05.741Z,71.64
2023-02-14T01:44:29.322Z,71.34
2023-02-14T01:45:32.465Z,71.56
2023-02-14T01:46:36.916Z,71.76
2023-02-14T01:47:41.762Z,71.61
2023-02-14T01:48:44.360Z,71.75
2023-02-14T01:49:49.506Z,71.49
2023-02-14T01:50:54.840Z,71.65
2023-02-14T01:52:03.986Z,71.55
2023-02-14T01:53:10.578Z,71.64
2023-02-14T01:54:14.166Z,71.68
2023-02-14T01:55:20.667Z,71.46
2023-02-14T01:56:30.066Z,71.48
2023-02-14T01:57:36.275Z,71.86
2023-02-14T01:58:44.909Z,71.92
2023-02-14T01:59:51.733Z,71.87
2023-02-14T02:00:57.619Z,71.64
2023-02-14T02:02:00.723Z,71.88
2023-02-14T02:03:05.013Z,71.87
2023-02-14T02:04:11.141Z,71.69
2023-02-14T02:05:14.436Z,71.87
2023-02-14T02:06:23.151Z,71.74
2023-02-14T02:07:26.672Z,71.88
2023-02-14T02:08:29.389Z,71.81
2023-02-14T02:09:34.059Z,71.63
2023-02-14T02:10:36.535Z,72.06
2023-02-14T02:11:39.254Z,71.90
2023-02-14T02:12:42.446Z,71.93
2023-02-14T02:13:49.551Z,72.11
2023-02-14T02:14:58.122Z,72.25
2023-02-14T02:16:13.870Z,72.03
2023-02-14T02:17:26.173Z,71.99
2023-02-14T02:18:41.851Z,72.34
2023-02-14T02:20:03.950Z,72.15
2023-02-14T02:21:37.550Z,71.90
2023-02-14T02:23:17.221Z,72.08
2023-02-14T02:24:29.457Z,71.92
2023-02-14T02:25:46.840Z,72.29
2023-02-14T02:27:15.051Z,72.16
2023-02-14T02:29:06.785Z,71.95
2023-02-14T02:30:41.634Z,72.31
2023-02-14T02:32:10.062Z,72.28
2023-02-14T02:33:42.902Z,72.20
2023-02-14T02:35:13.125Z,71.86
2023-02-14T02:36:43.123Z,71.95
2023-02-14T02:37:55.568Z,72.10
2023-02-14T02:39:11.121Z,72.28
2023-02-14T02:40:29.710Z,72.41
2023-02-14T02:41:39.678Z,72.13
2023-02-14T02:42:50.564Z,72.24
2023-02-14T02:43:57.708Z,72.29
2023-02-14T02:45:08.364Z,72.78
2023-02-14T02:46:36.099Z,72.43
2023-02-14T02:47:45.532Z,72.22
2023-02-14T02:48:57.087Z,72.38
2023-02-14T02:50:23.760Z,72.50
2023-02-14T02:51:55.480Z,72.46
2023-02-14T02:53:09.102Z,72.64
2023-02-14T02:54:17.291Z,72.29
2023-02-14T02:55:26.678Z,72.46
2023-02-14T02:56:47.427Z,72.59
2023-02-14T02:57:51.395Z,72.94
2023-02-14T02:58:58.103Z,72.84
2023-02-14T03:00:02.265Z,72.73
2023-02-14T03:01:11.424Z,72.90
2023-02-14T03:02:18.407Z,72.65
2023-02-14T03:03:44.923Z,72.70
2023-02-14T03:04:54.641Z,72.95
2023-02-14T03:05:58.944Z,72.63
2023-02-14T03:07:22.817Z,72.65
2023-02-14T03:08:25.404Z,72.79
2023-02-14T03:09:53.171Z,72.86
2023-02-14T03:10:55.989Z,72.92
2023-02-14T03:12:12.482Z,73.00
2023-02-14T03:13:26.570Z,72.82
2023-02-14T03:14:34.380Z,72.80
2023-02-14T03:15:52.733Z,72.92
2023-02-14T03:17:04.833Z,73.22
2023-02-14T03:18:13.994Z,73.19
2023-02-14T03:19:34.382Z,72.97
2023-02-14T03:20:47.587Z,73.24
2023-02-14T03:21:56.565Z,73.32
2023-02-14T03:23:09.643Z,73.13
2023-02-14T03:24:18.868Z,72.95
2023-02-14T03:25:40.363Z,73.22
2023-02-14T03:26:48.417Z,73.16
2023-02-14T03:27:55.819Z,73.22
2023-02-14T03:29:05.999Z,73.05
2023-02-14T03:30:16.146Z,73.33
2023-02-14T03:31:23.688Z,73.37
2023-02-14T03:32:35.352Z,73.55
2023-02-14T03:33:46.596Z,73.49
2023-02-14T03:34:56.288Z,73.40
2023-02-14T03:36:03.443Z,73.18
2023-02-14T03:37:12.296Z,73.28
2023-02-14T03:38:21.902Z,73.29
2023-02-14T03:39:28.928Z,73.54
2023-02-14T03:40:36.215Z,73.18
2023-02-14T03:41:43.278Z,73.78
2023-02-14T03:42:51.460Z,73.59
2023-02-14T03:43:57.147Z,73.34
2023-02-14T03:45:03.312Z,73.38
2023-02-14T03:46:10.295Z,73.70
2023-02-14T03:47:15.494Z,73.59
2023-02-14T03:48:20.013Z,73.20
2023-02-14T03:49:27.463Z,73.78
2023-02-14T03:50:31.426Z,73.36
2023-02-14T03:51:36.742Z,73.34
2023-02-14T03:54:59.245Z,73.34
2023-02-14T03:56:04.753Z,73.75
2023-02-14T03:57:15.846Z,73.35
2023-02-14T03:58:25.365Z,73.67
2023-02-14T03:59:28.703Z,73.90
2023-02-14T04:00:33.944Z,73.70
2023-02-14T04:01:42.530Z,73.56
2023-02-14T04:02:49.253Z,73.97
2023-02-14T04:03:55.423Z,73.49
2023-02-14T04:05:01.288Z,73.67
2023-02-14T04:06:06.431Z,73.61
2023-02-14T04:07:09.935Z,73.67
2023-02-14T04:08:12.640Z,74.19
2023-02-14T04:09:14.314Z,73.67
2023-02-14T04:10:19.234Z,73.94
2023-02-14T04:11:24.022Z,73.91
2023-02-14T04:12:37.768Z,73.78
2023-02-14T04:13:39.801Z,74.20
2023-02-14T04:14:42.425Z,74.22
2023-02-14T04:15:44.388Z,73.86
2023-02-14T04:17:06.552Z,73.88
2023-02-14T04:18:27.478Z,74.17
2023-02-14T04:19:30.010Z,73.85
2023-02-14T04:20:31.622Z,74.13
2023-02-14T04:21:34.133Z,74.29
2023-02-14T04:22:35.664Z,74.32
2023-02-14T04:23:38.557Z,74.10
2023-02-14T04:24:40.604Z,74.16
2023-02-14T04:25:45.578Z,74.08
2023-02-14T04:26:54.060Z,74.05
2023-02-14T04:27:56.670Z,74.24
2023-02-14T04:28:58.275Z,74.49
2023-02-14T04:30:00.876Z,74.28
2023-02-14T04:31:04.094Z,74.39
2023-02-14T04:32:08.996Z,74.18
2023-02-14T04:33:10.725Z,74.38
2023-02-14T04:34:13.589Z,74.12
2023-02-14T04:35:15.623Z,74.08
2023-02-14T04:36:18.172Z,74.09
2023-02-14T04:37:20.680Z,74.41
2023-02-14T04:38:23.211Z,74.57
2023-02-14T04:39:24.916Z,74.46
2023-02-14T04:40:27.651Z,74.15
2023-02-14T04:41:40.640Z,74.60
2023-02-14T04:42:43.194Z,74.27
2023-02-14T04:43:44.767Z,74.43
2023-02-14T04:44:47.293Z,74.48
2023-02-14T04:45:48.944Z,74.22
2023-02-14T04:46:51.939Z,74.39
2023-02-14T04:47:53.512Z,74.61
2023-02-14T04:48:55.984Z,74.48
2023-02-14T04:49:57.873Z,74.37
2023-02-14T04:51:00.669Z,74.38
2023-02-14T04:52:03.559Z,74.80
2023-02-14T04:53:07.616Z,74.92
2023-02-14T04:54:09.500Z,74.38
2023-02-14T04:55:12.139Z,75.12
2023-02-14T04:56:13.653Z,74.95
2023-02-14T04:57:17.569Z,75.03
2023-02-14T04:58:19.076Z,74.81
2023-02-14T04:59:24.684Z,74.64
2023-02-14T05:00:27.655Z,74.86
2023-02-14T05:01:29.340Z,74.95
2023-02-14T05:02:41.826Z,74.71
2023-02-14T05:03:46.582Z,74.85
2023-02-14T05:04:52.405Z,75.24
2023-02-14T05:05:53.984Z,74.86
2023-02-14T05:06:56.463Z,74.91
2023-02-14T05:07:58.015Z,75.12
2023-02-14T05:09:00.835Z,75.14
2023-02-14T05:10:02.608Z,74.99
2023-02-14T05:11:05.484Z,74.70
2023-02-14T05:12:07.254Z,75.33
2023-02-14T05:13:11.158Z,75.34
2023-02-14T05:14:13.786Z,75.41
2023-02-14T05:15:16.512Z,75.20
2023-02-14T05:16:18.089Z,75.27
2023-02-14T05:17:20.686Z,75.06
2023-02-14T05:18:22.245Z,75.35
2023-02-14T05:19:34.864Z,75.17
2023-02-14T05:20:36.632Z,75.35
2023-02-14T05:21:39.330Z,75.04
2023-02-14T05:22:40.863Z,75.04
2023-02-14T05:23:44.438Z,75.14
2023-02-14T05:24:46.924Z,75.44
2023-02-14T05:25:49.246Z,75.54
2023-02-14T05:26:51.777Z,75.65
2023-02-14T05:27:53.359Z,75.51
2023-02-14T05:28:57.809Z,75.27
2023-02-14T05:29:59.484Z,75.52
2023-02-14T05:31:02.460Z,75.33
2023-02-14T05:32:04.548Z,75.41
2023-02-14T05:33:07.444Z,75.43
2023-02-14T05:34:09.253Z,75.69
2023-02-14T05:35:11.834Z,75.34
2023-02-14T05:36:13.568Z,75.45
2023-02-14T05:37:16.079Z,75.60
2023-02-14T05:38:17.803Z,75.57
2023-02-14T05:39:20.740Z,75.53
2023-02-14T05:40:26.945Z,75.70
2023-02-14T05:41:29.577Z,75.52
2023-02-14T05:42:31.326Z,75.76
2023-02-14T05:43:33.868Z,75.62
2023-02-14T05:44:36.744Z,75.76
2023-02-14T05:45:39.498Z,75.71
2023-02-14T05:46:41.098Z,76.10
2023-02-14T05:47:43.587Z,75.81
2023-02-14T05:48:45.770Z,75.84
2023-02-14T05:49:48.323Z,75.61
2023-02-14T05:50:49.910Z,75.59
2023-02-14T05:51:52.449Z,75.60
2023-02-14T05:52:54.090Z,75.90
2023-02-14T05:53:57.733Z,76.03
2023-02-14T05:54:59.565Z,75.92
2023-02-14T05:56:04.726Z,75.82
2023-02-14T05:57:07.451Z,75.74
2023-02-14T05:58:09.583Z,75.75
2023-02-14T05:59:20.183Z,75.60
2023-02-14T06:00:27.446Z,75.74
2023-02-14T06:01:30.222Z,76.15
2023-02-14T06:02:32.112Z,75.73
2023-02-14T06:03:34.630Z,75.91
2023-02-14T06:04:37.419Z,76.14
2023-02-14T06:05:39.019Z,75.92
2023-02-14T06:06:41.956Z,76.25
2023-02-14T06:07:48.727Z,75.97
2023-02-14T06:08:51.235Z,75.81
2023-02-14T06:09:52.919Z,75.82
2023-02-14T06:10:55.656Z,76.13
2023-02-14T06:11:58.835Z,75.91
2023-02-14T06:13:00.916Z,76.13
2023-02-14T06:14:03.404Z,76.06
2023-02-14T06:15:05.784Z,75.89
2023-02-14T06:16:11.792Z,76.25
2023-02-14T06:17:13.498Z,75.98
2023-02-14T06:18:16.236Z,76.24
2023-02-14T06:19:17.835Z,76.22
2023-02-14T06:20:21.236Z,76.06
2023-02-14T06:21:23.751Z,76.36
2023-02-14T06:22:25.362Z,75.85
2023-02-14T06:23:27.851Z,76.17
2023-02-14T06:24:29.466Z,76.39
2023-02-14T06:25:32.476Z,76.09
2023-02-14T06:26:35.941Z,76.42
2023-02-14T06:27:38.574Z,76.08
2023-02-14T06:28:41.236Z,76.57
2023-02-14T06:29:42.761Z,76.53
2023-02-14T06:30:47.158Z,76.23
2023-02-14T06:31:50.191Z,76.30
2023-02-14T06:32:52.839Z,76.21
2023-02-14T06:33:56.297Z,76.42
2023-02-14T06:34:57.850Z,76.74
2023-02-14T06:36:00.392Z,76.66
2023-02-14T06:37:01.960Z,76.69
2023-02-14T06:38:04.545Z,76.53
2023-02-14T06:39:06.068Z,76.40
2023-02-14T06:40:09.791Z,76.49
2023-02-14T06:41:11.904Z,76.74
2023-02-14T06:42:14.741Z,76.38
2023-02-14T06:43:27.287Z,76.60
2023-02-14T06:44:30.695Z,76.79
2023-02-14T06:45:33.316Z,76.44
2023-02-14T06:46:34.968Z,76.58
2023-02-14T06:47:39.221Z,76.41
2023-02-14T06:48:41.802Z,76.94
2023-02-14T06:49:43.345Z,76.77
2023-02-14T06:50:47.494Z,76.50
2023-02-14T06:51:49.987Z,76.77
2023-02-14T06:52:52.481Z,76.62
2023-02-14T06:53:54.218Z,76.79
2023-02-14T06:54:56.788Z,76.62
2023-02-14T06:55:58.425Z,76.65
2023-02-14T06:57:01.177Z,76.59
2023-02-14T06:58:13.800Z,76.86
2023-02-14T06:59:15.554Z,76.54
2023-02-14T07:00:19.304Z,76.80
2023-02-14T07:01:30.083Z,76.61
2023-02-14T07:02:33.727Z,76.55
2023-02-14T07:03:37.616Z,76.87
2023-02-14T07:04:40.205Z,76.62
2023-02-14T07:05:41.786Z,76.91
2023-02-14T07:06:44.427Z,76.79
2023-02-14T07:07:47.021Z,76.51
2023-02-14T07:08:48.701Z,76.92
2023-02-14T07:09:51.578Z,76.97
2023-02-14T07:10:56.389Z,76.62
2023-02-14T07:11:58.926Z,76.68
2023-02-14T07:13:00.966Z,76.61
2023-02-14T07:14:03.484Z,76.72
2023-02-14T07:15:05.637Z,76.56
2023-02-14T07:16:08.263Z,76.91
2023-02-14T07:17:10.800Z,76.65
2023-02-14T07:18:13.031Z,76.88
2023-02-14T07:19:18.200Z,76.76
2023-02-14T07:20:21.744Z,76.22
2023-02-14T07:21:24.219Z,76.83
2023-02-14T07:22:26.779Z,76.72
2023-02-14T07:23:28.353Z,76.56
2023-02-14T07:24:31.970Z,76.68
2023-02-14T07:25:33.518Z,76.64
2023-02-14T07:26:36.049Z,76.43
2023-02-14T07:27:38.147Z,76.51
2023-02-14T07:28:44.908Z,76.93
2023-02-14T07:29:47.784Z,76.68
2023-02-14T07:30:50.398Z,76.60
2023-02-14T07:31:52.177Z,76.91
2023-02-14T07:32:55.012Z,76.33
2023-02-14T07:34:00.674Z,77.09
2023-02-14T07:35:06.288Z,76.60
2023-02-14T07:36:08.920Z,76.70
2023-02-14T07:37:11.522Z,76.49
2023-02-14T07:38:13.139Z,76.87
2023-02-14T07:39:15.685Z,76.37
2023-02-14T07:40:29.785Z,76.46
2023-02-14T07:41:31.363Z,76.66
2023-02-14T07:42:33.945Z,76.77
2023-02-14T07:43:35.571Z,76.36
2023-02-14T07:44:39.127Z,76.88
2023-02-14T07:45:40.718Z,76.45
2023-02-14T07:46:43.295Z,76.41
2023-02-14T07:47:44.902Z,76.76
2023-02-14T07:48:48.725Z,76.72
2023-02-14T07:49:50.281Z,76.74
2023-02-14T07:50:56.484Z,76.43
2023-02-14T07:51:58.401Z,76.61
2023-02-14T07:53:00.980Z,76.45
2023-02-14T07:54:03.783Z,76.44
2023-02-14T07:55:05.753Z,76.70
2023-02-14T07:56:08.250Z,76.52
2023-02-14T07:57:09.893Z,76.43
2023-02-14T07:58:12.380Z,76.12
2023-02-14T07:59:14.941Z,76.43
2023-02-14T08:00:17.397Z,76.41
2023-02-14T08:01:22.318Z,76.16
2023-02-14T08:02:24.884Z,76.42
2023-02-14T08:03:26.404Z,76.09
2023-02-14T08:04:29.155Z,75.94
2023-02-14T08:05:33.465Z,76.22
2023-02-14T08:06:36.685Z,76.11
2023-02-14T08:07:39.351Z,76.06
2023-02-14T08:08:41.834Z,75.89
2023-02-14T08:09:44.330Z,76.14
2023-02-14T08:10:46.822Z,76.06
2023-02-14T08:12:06.913Z,76.13
2023-02-14T08:13:09.415Z,75.85
2023-02-14T08:14:11.496Z,75.59
2023-02-14T08:15:39.861Z,75.86
2023-02-14T08:16:42.550Z,75.52
2023-02-14T08:17:44.662Z,75.56
2023-02-14T08:18:47.159Z,75.73
2023-02-14T08:19:49.778Z,75.74
2023-02-14T08:20:54.196Z,75.10
2023-02-14T08:21:58.119Z,75.97
2023-02-14T08:22:59.717Z,75.72
2023-02-14T08:24:02.211Z,75.19
2023-02-14T08:25:13.143Z,75.45
2023-02-14T08:26:15.742Z,75.24
2023-02-14T08:27:17.287Z,75.24
2023-02-14T08:28:23.787Z,75.16
2023-02-14T08:29:26.915Z,75.42
2023-02-14T08:30:29.193Z,74.97
2023-02-14T08:31:35.973Z,75.04
2023-02-14T08:32:38.126Z,74.83
2023-02-14T08:33:40.726Z,74.99
2023-02-14T08:34:42.301Z,75.05
2023-02-14T08:35:44.881Z,74.62
2023-02-14T08:36:47.404Z,75.03
2023-02-14T08:37:51.320Z,74.73
2023-02-14T08:38:55.121Z,74.60
2023-02-14T08:39:57.658Z,74.70
2023-02-14T08:41:06.640Z,74.69
2023-02-14T08:42:10.736Z,74.48
2023-02-14T08:43:13.848Z,74.68
2023-02-14T08:44:16.650Z,74.22
2023-02-14T08:45:18.616Z,74.55
2023-02-14T08:46:21.162Z,74.43
2023-02-14T08:47:23.743Z,74.35
2023-02-14T08:48:29.188Z,74.50
2023-02-14T08:49:31.132Z,74.45
2023-02-14T08:50:34.755Z,74.09
2023-02-14T08:51:37.301Z,74.67
2023-02-14T08:52:40.211Z,73.89
2023-02-14T08:53:46.125Z,74.45
2023-02-14T08:54:47.664Z,74.02
2023-02-14T08:55:50.301Z,74.27
2023-02-14T08:56:52.930Z,73.98
2023-02-14T08:57:56.826Z,74.30
2023-02-14T08:58:59.487Z,73.92
2023-02-14T09:00:02.112Z,73.72
2023-02-14T09:01:10.524Z,73.94
2023-02-14T09:02:13.480Z,73.67
2023-02-14T09:03:15.982Z,73.75
2023-02-14T09:04:18.513Z,73.70
2023-02-14T09:05:23.230Z,73.91
2023-02-14T09:06:26.177Z,73.73
2023-02-14T09:07:27.888Z,73.50
2023-02-14T09:08:31.145Z,73.85
2023-02-14T09:09:34.285Z,73.55
2023-02-14T09:10:37.600Z,73.42
2023-02-14T09:11:39.186Z,73.58
2023-02-14T09:12:42.964Z,73.47
2023-02-14T09:13:47.514Z,73.62
2023-02-14T09:14:50.528Z,73.27
2023-02-14T09:15:53.110Z,73.42
2023-02-14T09:16:55.735Z,73.40
2023-02-14T09:17:58.400Z,73.36
2023-02-14T09:18:59.987Z,73.30
2023-02-14T09:20:02.507Z,73.39
2023-02-14T09:21:09.021Z,73.30
2023-02-14T09:22:12.402Z,72.94
2023-02-14T09:23:24.888Z,73.17
2023-02-14T09:24:27.588Z,73.19
2023-02-14T09:25:32.397Z,73.21
2023-02-14T09:26:36.803Z,73.06
2023-02-14T09:27:40.098Z,73.14
2023-02-14T09:28:41.908Z,73.09
2023-02-14T09:29:44.477Z,73.06
2023-02-14T09:30:47.034Z,72.79
2023-02-14T09:31:48.736Z,73.15
2023-02-14T09:32:53.136Z,72.85
2023-02-14T09:33:54.795Z,72.73
2023-02-14T09:34:57.350Z,72.86
2023-02-14T09:36:14.136Z,72.85
2023-02-14T09:37:16.172Z,72.61
2023-02-14T09:38:19.039Z,72.70
2023-02-14T09:39:20.602Z,72.67
2023-02-14T09:40:25.360Z,72.42
2023-02-14T09:42:02.283Z,72.67
2023-02-14T09:46:03.581Z,72.59
2023-02-14T09:47:12.772Z,72.67
2023-02-14T09:48:28.254Z,72.68
2023-02-14T09:49:32.950Z,72.80
2023-02-14T09:50:43.225Z,72.51
2023-02-14T09:51:48.854Z,72.47
2023-02-14T09:52:54.488Z,72.27
2023-02-14T09:54:03.449Z,72.47
2023-02-14T09:55:13.588Z,72.42
2023-02-14T09:56:22.099Z,72.35
2023-02-14T09:57:38.530Z,72.37
2023-02-14T09:58:46.931Z,72.53
2023-02-14T09:59:54.578Z,72.23
2023-02-14T10:01:06.136Z,72.26
2023-02-14T10:02:31.713Z,72.33
2023-02-14T10:03:47.549Z,72.33
2023-02-14T10:04:58.696Z,72.13
2023-02-14T10:06:08.204Z,72.00
2023-02-14T10:07:22.743Z,72.30
2023-02-14T10:08:41.647Z,72.08
2023-02-14T10:09:57.041Z,72.29
2023-02-14T10:11:05.420Z,72.03
2023-02-14T10:12:15.296Z,72.02
2023-02-14T10:13:24.160Z,72.06
2023-02-14T10:14:30.564Z,71.85
2023-02-14T10:15:38.073Z,71.82
2023-02-14T10:16:45.248Z,71.89
2023-02-14T10:17:50.738Z,72.03
2023-02-14T10:18:57.493Z,71.84
2023-02-14T10:20:03.701Z,71.70
2023-02-14T10:21:22.568Z,71.77
2023-02-14T10:22:34.161Z,71.89
2023-02-14T10:23:41.991Z,71.90
2023-02-14T10:24:49.439Z,71.71
2023-02-14T10:25:58.016Z,71.62
2023-02-14T10:27:11.128Z,71.58
2023-02-14T10:28:16.947Z,71.50
2023-02-14T10:29:21.957Z,71.42
2023-02-14T10:30:24.580Z,71.48
2023-02-14T10:31:32.697Z,71.55
2023-02-14T10:32:41.589Z,71.43
2023-02-14T10:33:50.806Z,71.27
2023-02-14T10:34:58.202Z,71.38
2023-02-14T10:36:05.465Z,71.17
2023-02-14T10:37:26.219Z,71.31
2023-02-14T10:38:40.662Z,71.16
2023-02-14T10:40:02.471Z,71.13
2023-02-14T10:41:32.350Z,71.03
2023-02-14T10:42:46.204Z,70.98
2023-02-14T10:44:00.619Z,70.88
2023-02-14T10:45:16.823Z,70.92
2023-02-14T10:46:31.516Z,70.97
2023-02-14T10:47:43.023Z,70.65
2023-02-14T10:48:56.210Z,70.54
2023-02-14T10:50:11.037Z,70.67
2023-02-14T10:51:17.595Z,70.61
2023-02-14T10:52:27.627Z,70.46
2023-02-14T10:53:42.723Z,70.54
2023-02-14T10:54:54.450Z,70.41
2023-02-14T10:56:03.647Z,70.13
2023-02-14T10:57:13.816Z,70.33
2023-02-14T10:58:20.459Z,70.04
2023-02-14T10:59:31.348Z,70.10
2023-02-14T11:00:38.701Z,70.07
2023-02-14T11:01:41.567Z,70.03
2023-02-14T11:02:48.512Z,69.81
2023-02-14T11:03:56.122Z,69.81
2023-02-14T11:04:59.835Z,69.59
2023-02-14T11:06:02.699Z,69.73
2023-02-14T11:07:05.207Z,69.71
2023-02-14T11:08:15.556Z,69.38
2023-02-14T11:09:19.151Z,69.35
2023-02-14T11:10:35.589Z,69.36
2023-02-14T11:11:42.171Z,69.16
2023-02-14T11:12:48.618Z,69.02
2023-02-14T11:13:51.852Z,69.15
2023-02-14T11:15:10.759Z,69.00
2023-02-14T11:16:29.967Z,68.93
2023-02-14T11:17:34.858Z,68.93
2023-02-14T11:18:39.794Z,68.72
2023-02-14T11:19:42.292Z,68.75
2023-02-14T11:20:44.820Z,68.85
2023-02-14T11:21:50.693Z,68.65
2023-02-14T11:22:52.401Z,68.75
2023-02-14T11:23:54.980Z,68.47
2023-02-14T11:25:04.797Z,68.52
2023-02-14T11:26:22.635Z,68.47
2023-02-14T11:27:27.374Z,68.40
2023-02-14T11:28:36.612Z,68.20
2023-02-14T11:29:45.076Z,68.35
2023-02-14T11:30:49.746Z,68.18
2023-02-14T11:31:54.615Z,68.17
2023-02-14T11:32:57.401Z,68.14
2023-02-14T11:34:02.936Z,68.17
2023-02-14T11:35:17.800Z,68.12
2023-02-14T11:36:20.499Z,68.04
2023-02-14T11:37:29.205Z,67.81
2023-02-14T11:38:35.862Z,67.78
2023-02-14T11:39:37.518Z,67.84
2023-02-14T11:40:41.000Z,67.64
2023-02-14T11:41:49.898Z,67.68
2023-02-14T11:43:12.843Z,67.62
2023-02-14T11:44:22.599Z,67.52
2023-02-14T11:50:10.860Z,67.12
2023-02-14T11:51:14.672Z,67.57
2023-02-14T11:52:19.523Z,67.53
2023-02-14T11:53:25.832Z,67.36
2023-02-14T11:54:32.974Z,67.27
2023-02-14T11:55:35.602Z,67.06
2023-02-14T11:56:50.512Z,67.01
2023-02-14T11:57:53.632Z,67.06
2023-02-14T11:58:58.010Z,67.02
2023-02-14T12:00:03.088Z,66.99
2023-02-14T12:01:07.625Z,66.87
2023-02-14T12:02:33.484Z,66.74
2023-02-14T12:03:40.956Z,66.77
2023-02-14T12:04:47.068Z,66.71
2023-02-14T12:05:53.887Z,66.57
2023-02-14T12:06:56.010Z,66.46
2023-02-14T12:08:00.565Z,66.55
2023-02-14T12:09:12.802Z,66.45
2023-02-14T12:10:25.268Z,66.54
2023-02-14T12:11:27.253Z,66.46
2023-02-14T12:12:30.142Z,66.34
2023-02-14T12:13:33.192Z,66.39
2023-02-14T12:14:36.641Z,66.32
2023-02-14T12:15:41.139Z,66.26
2023-02-14T12:16:54.951Z,66.07
2023-02-14T12:18:06.576Z,66.30
2023-02-14T12:19:17.059Z,66.06
2023-02-14T12:20:27.057Z,66.05
2023-02-14T12:21:41.751Z,65.92
2023-02-14T12:22:50.744Z,66.12
2023-02-14T12:24:03.317Z,65.89
2023-02-14T12:25:14.700Z,66.00
2023-02-14T12:26:28.514Z,65.94
2023-02-14T12:27:35.635Z,65.80
2023-02-14T12:28:43.977Z,65.89
2023-02-14T12:29:51.838Z,65.80
2023-02-14T12:30:54.667Z,65.87
2023-02-14T12:32:02.029Z,65.85
2023-02-14T12:33:17.410Z,65.92
2023-02-14T12:34:20.271Z,65.68
2023-02-14T12:35:50.349Z,65.42
2023-02-14T12:37:09.033Z,65.67
2023-02-14T12:38:24.173Z,65.55
2023-02-14T12:39:36.473Z,65.61
2023-02-14T12:40:50.604Z,65.46
2023-02-14T12:42:07.474Z,65.48
2023-02-14T12:43:50.512Z,65.60
2023-02-14T12:45:03.409Z,65.54
2023-02-14T12:46:22.182Z,65.63
2023-02-14T12:47:37.009Z,65.57
2023-02-14T12:48:54.035Z,65.50
2023-02-14T12:50:24.463Z,65.42
2023-02-14T12:51:31.471Z,65.34
2023-02-14T12:53:04.352Z,65.29
2023-02-14T12:54:28.891Z,65.39
2023-02-14T12:55:52.205Z,65.26
2023-02-14T12:57:05.699Z,65.39
2023-02-14T12:58:25.728Z,65.29
2023-02-14T12:59:40.943Z,65.49
2023-02-14T13:00:54.078Z,65.14
2023-02-14T13:02:38.526Z,65.16
2023-02-14T13:03:56.429Z,65.04
2023-02-14T13:05:06.450Z,65.24
2023-02-14T13:06:15.557Z,64.98
2023-02-14T13:07:26.714Z,65.04
2023-02-14T13:08:46.201Z,65.06
2023-02-14T13:09:57.766Z,64.88
2023-02-14T13:11:09.823Z,64.85
2023-02-14T13:12:30.227Z,64.84
2023-02-14T13:13:46.995Z,64.75
2023-02-14T13:15:03.955Z,64.69
2023-02-14T13:16:16.966Z,64.80
2023-02-14T13:17:27.303Z,64.46
2023-02-14T13:18:40.457Z,64.48
2023-02-14T13:19:51.488Z,64.41
2023-02-14T13:20:56.616Z,64.67
2023-02-14T13:21:59.993Z,64.41
2023-02-14T13:23:06.165Z,64.19
2023-02-14T13:24:18.511Z,64.10
2023-02-14T13:25:31.595Z,64.05
2023-02-14T13:26:39.507Z,64.18
2023-02-14T13:27:41.696Z,64.19
2023-02-14T13:28:51.919Z,64.18
2023-02-14T13:30:01.010Z,64.11
2023-02-14T13:31:04.015Z,64.09
2023-02-14T13:32:06.413Z,63.89
2023-02-14T13:33:26.312Z,63.73
2023-02-14T13:34:32.644Z,63.84
2023-02-14T13:35:34.990Z,63.73
2023-02-14T13:36:38.406Z,63.69
2023-02-14T13:37:47.916Z,63.80
2023-02-14T13:38:56.498Z,63.20
2023-02-14T13:40:05.004Z,63.62
2023-02-14T13:41:09.358Z,63.41
2023-02-14T13:42:12.643Z,63.46
2023-02-14T13:44:05.551Z,63.60
2023-02-14T13:45:51.924Z,63.48
2023-02-14T13:46:56.054Z,63.60
2023-02-14T13:48:03.296Z,63.51
2023-02-14T13:49:21.870Z,63.51
2023-02-14T13:50:24.628Z,63.52
2023-02-14T13:51:44.615Z,63.57
2023-02-14T13:52:49.796Z,63.25
2023-02-14T13:53:55.196Z,63.46
2023-02-14T13:55:03.408Z,63.34
2023-02-14T13:56:28.460Z,63.21
2023-02-14T13:57:34.014Z,63.08
2023-02-14T13:58:36.042Z,63.19
2023-02-14T13:59:38.552Z,63.20
2023-02-14T14:00:42.251Z,63.15
2023-02-14T14:01:48.055Z,63.13
2023-02-14T14:02:51.926Z,63.00
2023-02-14T14:03:58.531Z,63.14
2023-02-14T14:05:00.259Z,62.94
2023-02-14T14:06:05.871Z,62.78
2023-02-14T14:07:24.285Z,62.80
2023-02-14T14:08:38.926Z,62.77
2023-02-14T14:09:56.700Z,62.63
2023-02-14T14:11:00.860Z,62.57
2023-02-14T14:12:03.775Z,62.69
2023-02-14T14:13:08.487Z,62.66
2023-02-14T14:14:36.093Z,62.50
2023-02-14T14:15:38.679Z,62.45
2023-02-14T14:16:40.359Z,62.55
2023-02-14T14:17:45.870Z,62.35
2023-02-14T14:18:51.545Z,62.44
2023-02-14T14:19:55.028Z,62.24
2023-02-14T14:20:58.417Z,62.46
2023-02-14T14:22:01.920Z,62.07
2023-02-14T14:23:04.511Z,62.14
2023-02-14T14:24:18.860Z,62.11
2023-02-14T14:25:31.985Z,61.90
2023-02-14T14:26:39.659Z,62.04
2023-02-14T14:27:45.544Z,61.82
2023-02-14T14:28:47.134Z,61.98
2023-02-14T14:29:53.290Z,61.80
2023-02-14T14:30:55.327Z,62.10